sensor_id;sensor_type;location;lat;lon;timestamp;pressure;altitude;pressure_sealevel;temperature
20103;BMP180;10210;52.284;9.892;2023-05-10T00:00:34;99735.00;;;19.40
20103;BMP180;10210;52.284;9.892;2023-05-10T00:02:59;99739.00;;;19.40
20103;BMP180;10210;52.284;9.892;2023-05-10T00:05:25;99741.00;;;19.40
20103;BMP180;10210;52.284;9.892;2023-05-10T00:07:51;99749.00;;;19.40
20103;BMP180;10210;52.284;9.892;2023-05-10T00:10:17;99743.00;;;19.40
20103;BMP180;10210;52.284;9.892;2023-05-10T00:12:42;99740.00;;;19.40
20103;BMP180;10210;52.284;9.892;2023-05-10T00:15:09;99721.00;;;19.40
20103;BMP180;10210;52.284;9.892;2023-05-10T00:17:34;99727.00;;;19.40
20103;BMP180;10210;52.284;9.892;2023-05-10T00:20:00;99723.00;;;19.50
20103;BMP180;10210;52.284;9.892;2023-05-10T00:22:26;99726.00;;;19.50
20103;BMP180;10210;52.284;9.892;2023-05-10T00:24:51;99725.00;;;19.50
20103;BMP180;10210;52.284;9.892;2023-05-10T00:27:17;99722.00;;;19.50
20103;BMP180;10210;52.284;9.892;2023-05-10T00:29:43;99720.00;;;19.50
20103;BMP180;10210;52.284;9.892;2023-05-10T00:32:08;99712.00;;;19.50
20103;BMP180;10210;52.284;9.892;2023-05-10T00:34:34;99713.00;;;19.50
20103;BMP180;10210;52.284;9.892;2023-05-10T00:36:59;99713.00;;;19.50
20103;BMP180;10210;52.284;9.892;2023-05-10T00:39:25;99708.00;;;19.50
20103;BMP180;10210;52.284;9.892;2023-05-10T00:41:52;99714.00;;;19.60
20103;BMP180;10210;52.284;9.892;2023-05-10T00:44:17;99710.00;;;19.60
20103;BMP180;10210;52.284;9.892;2023-05-10T00:46:44;99705.00;;;19.50
20103;BMP180;10210;52.284;9.892;2023-05-10T00:49:10;99703.00;;;19.50
20103;BMP180;10210;52.284;9.892;2023-05-10T00:51:36;99706.00;;;19.50
20103;BMP180;10210;52.284;9.892;2023-05-10T00:54:03;99703.00;;;19.50
20103;BMP180;10210;52.284;9.892;2023-05-10T00:56:28;99701.00;;;19.60
20103;BMP180;10210;52.284;9.892;2023-05-10T00:58:55;99700.00;;;19.60
20103;BMP180;10210;52.284;9.892;2023-05-10T01:01:21;99697.00;;;19.50
20103;BMP180;10210;52.284;9.892;2023-05-10T01:03:47;99700.00;;;19.50
20103;BMP180;10210;52.284;9.892;2023-05-10T01:06:13;99695.00;;;19.50
20103;BMP180;10210;52.284;9.892;2023-05-10T01:08:39;99702.00;;;19.50
20103;BMP180;10210;52.284;9.892;2023-05-10T01:11:05;99692.00;;;19.40
20103;BMP180;10210;52.284;9.892;2023-05-10T01:13:36;99692.00;;;19.40
20103;BMP180;10210;52.284;9.892;2023-05-10T01:16:04;99698.00;;;19.40
20103;BMP180;10210;52.284;9.892;2023-05-10T01:18:36;99687.00;;;19.40
20103;BMP180;10210;52.284;9.892;2023-05-10T01:33:25;99697.00;;;19.10
20103;BMP180;10210;52.284;9.892;2023-05-10T01:36:05;99693.00;;;19.00
20103;BMP180;10210;52.284;9.892;2023-05-10T01:41:20;99687.00;;;18.80
20103;BMP180;10210;52.284;9.892;2023-05-10T01:44:00;99689.00;;;18.80
20103;BMP180;10210;52.284;9.892;2023-05-10T01:46:35;99691.00;;;18.70
20103;BMP180;10210;52.284;9.892;2023-05-10T01:49:08;99678.00;;;18.70
20103;BMP180;10210;52.284;9.892;2023-05-10T01:51:50;99691.00;;;18.60
20103;BMP180;10210;52.284;9.892;2023-05-10T01:54:20;99693.00;;;18.60
20103;BMP180;10210;52.284;9.892;2023-05-10T01:56:55;99682.00;;;18.50
20103;BMP180;10210;52.284;9.892;2023-05-10T01:59:22;99682.00;;;18.50
20103;BMP180;10210;52.284;9.892;2023-05-10T02:01:52;99680.00;;;18.40
20103;BMP180;10210;52.284;9.892;2023-05-10T02:04:21;99683.00;;;18.40
20103;BMP180;10210;52.284;9.892;2023-05-10T02:06:50;99682.00;;;18.30
20103;BMP180;10210;52.284;9.892;2023-05-10T02:09:17;99681.00;;;18.30
20103;BMP180;10210;52.284;9.892;2023-05-10T02:11:45;99683.00;;;18.30
20103;BMP180;10210;52.284;9.892;2023-05-10T02:14:14;99683.00;;;18.20
20103;BMP180;10210;52.284;9.892;2023-05-10T02:16:41;99682.00;;;18.20
20103;BMP180;10210;52.284;9.892;2023-05-10T02:19:07;99681.00;;;18.20
20103;BMP180;10210;52.284;9.892;2023-05-10T02:21:35;99678.00;;;18.20
20103;BMP180;10210;52.284;9.892;2023-05-10T02:24:03;99680.00;;;18.10
20103;BMP180;10210;52.284;9.892;2023-05-10T02:26:31;99683.00;;;18.10
20103;BMP180;10210;52.284;9.892;2023-05-10T02:28:58;99680.00;;;18.00
20103;BMP180;10210;52.284;9.892;2023-05-10T02:31:25;99671.00;;;18.00
20103;BMP180;10210;52.284;9.892;2023-05-10T02:33:52;99668.00;;;18.00
20103;BMP180;10210;52.284;9.892;2023-05-10T02:36:20;99671.00;;;18.00
20103;BMP180;10210;52.284;9.892;2023-05-10T02:38:48;99669.00;;;18.00
20103;BMP180;10210;52.284;9.892;2023-05-10T02:41:16;99671.00;;;17.90
20103;BMP180;10210;52.284;9.892;2023-05-10T02:43:43;99672.00;;;17.90
20103;BMP180;10210;52.284;9.892;2023-05-10T02:46:09;99667.00;;;17.90
20103;BMP180;10210;52.284;9.892;2023-05-10T02:48:35;99662.00;;;17.80
20103;BMP180;10210;52.284;9.892;2023-05-10T02:51:06;99668.00;;;17.80
20103;BMP180;10210;52.284;9.892;2023-05-10T02:53:36;99672.00;;;17.80
20103;BMP180;10210;52.284;9.892;2023-05-10T02:56:19;99663.00;;;17.80
20103;BMP180;10210;52.284;9.892;2023-05-10T02:58:45;99659.00;;;17.80
20103;BMP180;10210;52.284;9.892;2023-05-10T03:01:11;99665.00;;;17.80
20103;BMP180;10210;52.284;9.892;2023-05-10T03:03:37;99659.00;;;17.80
20103;BMP180;10210;52.284;9.892;2023-05-10T03:06:03;99658.00;;;17.80
20103;BMP180;10210;52.284;9.892;2023-05-10T03:08:29;99662.00;;;17.80
20103;BMP180;10210;52.284;9.892;2023-05-10T03:11:32;99659.00;;;17.70
20103;BMP180;10210;52.284;9.892;2023-05-10T03:17:16;99652.00;;;17.80
20103;BMP180;10210;52.284;9.892;2023-05-10T03:19:56;99658.00;;;17.80
20103;BMP180;10210;52.284;9.892;2023-05-10T03:22:51;99662.00;;;17.80
20103;BMP180;10210;52.284;9.892;2023-05-10T03:25:20;99672.00;;;17.80
20103;BMP180;10210;52.284;9.892;2023-05-10T03:27:48;99665.00;;;17.80
20103;BMP180;10210;52.284;9.892;2023-05-10T03:30:15;99669.00;;;17.80
20103;BMP180;10210;52.284;9.892;2023-05-10T03:32:41;99656.00;;;17.80
20103;BMP180;10210;52.284;9.892;2023-05-10T03:35:12;99665.00;;;17.80
20103;BMP180;10210;52.284;9.892;2023-05-10T03:37:38;99657.00;;;17.80
20103;BMP180;10210;52.284;9.892;2023-05-10T03:40:05;99668.00;;;17.80
20103;BMP180;10210;52.284;9.892;2023-05-10T03:42:31;99659.00;;;17.70
20103;BMP180;10210;52.284;9.892;2023-05-10T03:44:56;99668.00;;;17.60
20103;BMP180;10210;52.284;9.892;2023-05-10T03:47:22;99664.00;;;17.60
20103;BMP180;10210;52.284;9.892;2023-05-10T03:49:49;99661.00;;;17.50
20103;BMP180;10210;52.284;9.892;2023-05-10T03:52:15;99661.00;;;17.50
20103;BMP180;10210;52.284;9.892;2023-05-10T03:54:41;99655.00;;;17.50
20103;BMP180;10210;52.284;9.892;2023-05-10T03:57:06;99655.00;;;17.50
20103;BMP180;10210;52.284;9.892;2023-05-10T03:59:32;99657.00;;;17.50
20103;BMP180;10210;52.284;9.892;2023-05-10T04:01:58;99657.00;;;17.50
20103;BMP180;10210;52.284;9.892;2023-05-10T04:04:23;99656.00;;;17.40
20103;BMP180;10210;52.284;9.892;2023-05-10T04:06:49;99662.00;;;17.40
20103;BMP180;10210;52.284;9.892;2023-05-10T04:09:15;99664.00;;;17.40
20103;BMP180;10210;52.284;9.892;2023-05-10T04:11:42;99660.00;;;17.40
20103;BMP180;10210;52.284;9.892;2023-05-10T04:14:09;99676.00;;;17.40
20103;BMP180;10210;52.284;9.892;2023-05-10T04:16:35;99667.00;;;17.40
20103;BMP180;10210;52.284;9.892;2023-05-10T04:19:01;99670.00;;;17.40
20103;BMP180;10210;52.284;9.892;2023-05-10T04:21:26;99668.00;;;17.40
20103;BMP180;10210;52.284;9.892;2023-05-10T04:23:52;99669.00;;;17.30
20103;BMP180;10210;52.284;9.892;2023-05-10T04:26:17;99664.00;;;17.30
20103;BMP180;10210;52.284;9.892;2023-05-10T04:28:43;99671.00;;;17.30
20103;BMP180;10210;52.284;9.892;2023-05-10T04:31:09;99672.00;;;17.30
20103;BMP180;10210;52.284;9.892;2023-05-10T04:33:36;99668.00;;;17.30
20103;BMP180;10210;52.284;9.892;2023-05-10T04:36:02;99669.00;;;17.30
20103;BMP180;10210;52.284;9.892;2023-05-10T04:38:29;99680.00;;;17.30
20103;BMP180;10210;52.284;9.892;2023-05-10T04:41:04;99675.00;;;17.40
20103;BMP180;10210;52.284;9.892;2023-05-10T04:43:30;99676.00;;;17.40
20103;BMP180;10210;52.284;9.892;2023-05-10T04:45:59;99660.00;;;17.40
20103;BMP180;10210;52.284;9.892;2023-05-10T04:48:25;99670.00;;;17.40
20103;BMP180;10210;52.284;9.892;2023-05-10T04:50:50;99674.00;;;17.40
20103;BMP180;10210;52.284;9.892;2023-05-10T04:53:16;99668.00;;;17.40
20103;BMP180;10210;52.284;9.892;2023-05-10T04:55:42;99659.00;;;17.40
20103;BMP180;10210;52.284;9.892;2023-05-10T04:58:08;99673.00;;;17.40
20103;BMP180;10210;52.284;9.892;2023-05-10T05:00:34;99683.00;;;17.30
20103;BMP180;10210;52.284;9.892;2023-05-10T05:02:59;99692.00;;;17.30
20103;BMP180;10210;52.284;9.892;2023-05-10T05:05:25;99689.00;;;17.30
20103;BMP180;10210;52.284;9.892;2023-05-10T05:07:50;99694.00;;;17.40
20103;BMP180;10210;52.284;9.892;2023-05-10T05:10:16;99701.00;;;17.40
20103;BMP180;10210;52.284;9.892;2023-05-10T05:12:42;99714.00;;;17.40
20103;BMP180;10210;52.284;9.892;2023-05-10T05:15:08;99716.00;;;17.40
20103;BMP180;10210;52.284;9.892;2023-05-10T05:17:35;99716.00;;;17.40
20103;BMP180;10210;52.284;9.892;2023-05-10T05:20:01;99715.00;;;17.30
20103;BMP180;10210;52.284;9.892;2023-05-10T05:22:27;99718.00;;;17.30
20103;BMP180;10210;52.284;9.892;2023-05-10T05:24:57;99720.00;;;17.30
20103;BMP180;10210;52.284;9.892;2023-05-10T05:27:24;99727.00;;;17.30
20103;BMP180;10210;52.284;9.892;2023-05-10T05:29:55;99724.00;;;17.30
20103;BMP180;10210;52.284;9.892;2023-05-10T05:32:22;99730.00;;;17.40
20103;BMP180;10210;52.284;9.892;2023-05-10T05:34:51;99730.00;;;17.40
20103;BMP180;10210;52.284;9.892;2023-05-10T05:37:20;99728.00;;;17.40
20103;BMP180;10210;52.284;9.892;2023-05-10T05:39:47;99735.00;;;17.40
20103;BMP180;10210;52.284;9.892;2023-05-10T05:42:13;99735.00;;;17.40
20103;BMP180;10210;52.284;9.892;2023-05-10T05:44:39;99732.00;;;17.40
20103;BMP180;10210;52.284;9.892;2023-05-10T05:47:06;99715.00;;;17.40
20103;BMP180;10210;52.284;9.892;2023-05-10T05:49:32;99732.00;;;17.40
20103;BMP180;10210;52.284;9.892;2023-05-10T05:52:02;99739.00;;;17.40
20103;BMP180;10210;52.284;9.892;2023-05-10T05:54:29;99731.00;;;17.40
20103;BMP180;10210;52.284;9.892;2023-05-10T05:56:58;99738.00;;;17.50
20103;BMP180;10210;52.284;9.892;2023-05-10T05:59:24;99748.00;;;17.50
20103;BMP180;10210;52.284;9.892;2023-05-10T06:01:50;99763.00;;;17.50
20103;BMP180;10210;52.284;9.892;2023-05-10T06:04:16;99759.00;;;17.50
20103;BMP180;10210;52.284;9.892;2023-05-10T06:06:42;99755.00;;;17.50
20103;BMP180;10210;52.284;9.892;2023-05-10T06:09:09;99763.00;;;17.50
20103;BMP180;10210;52.284;9.892;2023-05-10T06:11:35;99775.00;;;17.50
20103;BMP180;10210;52.284;9.892;2023-05-10T06:14:02;99772.00;;;17.40
20103;BMP180;10210;52.284;9.892;2023-05-10T06:16:30;99770.00;;;17.40
20103;BMP180;10210;52.284;9.892;2023-05-10T06:18:56;99777.00;;;17.40
20103;BMP180;10210;52.284;9.892;2023-05-10T06:21:22;99775.00;;;17.40
20103;BMP180;10210;52.284;9.892;2023-05-10T06:23:47;99776.00;;;17.40
20103;BMP180;10210;52.284;9.892;2023-05-10T06:26:13;99776.00;;;17.40
20103;BMP180;10210;52.284;9.892;2023-05-10T06:28:39;99771.00;;;17.40
20103;BMP180;10210;52.284;9.892;2023-05-10T06:31:06;99774.00;;;17.40
20103;BMP180;10210;52.284;9.892;2023-05-10T06:33:32;99785.00;;;17.40
20103;BMP180;10210;52.284;9.892;2023-05-10T06:35:58;99781.00;;;17.40
20103;BMP180;10210;52.284;9.892;2023-05-10T06:38:24;99794.00;;;17.40
20103;BMP180;10210;52.284;9.892;2023-05-10T06:40:50;99788.00;;;17.40
20103;BMP180;10210;52.284;9.892;2023-05-10T06:43:16;99792.00;;;17.40
20103;BMP180;10210;52.284;9.892;2023-05-10T06:45:41;99787.00;;;17.40
20103;BMP180;10210;52.284;9.892;2023-05-10T06:48:07;99793.00;;;17.50
20103;BMP180;10210;52.284;9.892;2023-05-10T06:50:33;99792.00;;;17.50
20103;BMP180;10210;52.284;9.892;2023-05-10T06:53:00;99796.00;;;17.50
20103;BMP180;10210;52.284;9.892;2023-05-10T06:55:26;99798.00;;;17.50
20103;BMP180;10210;52.284;9.892;2023-05-10T06:57:52;99788.00;;;17.50
20103;BMP180;10210;52.284;9.892;2023-05-10T07:00:18;99801.00;;;17.40
20103;BMP180;10210;52.284;9.892;2023-05-10T07:02:45;99801.00;;;17.50
20103;BMP180;10210;52.284;9.892;2023-05-10T07:05:11;99808.00;;;17.50
20103;BMP180;10210;52.284;9.892;2023-05-10T07:07:37;99810.00;;;17.50
20103;BMP180;10210;52.284;9.892;2023-05-10T07:10:03;99810.00;;;17.50
20103;BMP180;10210;52.284;9.892;2023-05-10T07:12:30;99804.00;;;17.60
20103;BMP180;10210;52.284;9.892;2023-05-10T07:14:55;99817.00;;;17.60
20103;BMP180;10210;52.284;9.892;2023-05-10T07:17:21;99819.00;;;17.60
20103;BMP180;10210;52.284;9.892;2023-05-10T07:19:47;99817.00;;;17.70
20103;BMP180;10210;52.284;9.892;2023-05-10T07:22:12;99832.00;;;17.70
20103;BMP180;10210;52.284;9.892;2023-05-10T07:24:38;99824.00;;;17.70
20103;BMP180;10210;52.284;9.892;2023-05-10T07:27:04;99817.00;;;17.70
20103;BMP180;10210;52.284;9.892;2023-05-10T07:29:30;99821.00;;;17.80
20103;BMP180;10210;52.284;9.892;2023-05-10T07:31:55;99826.00;;;17.80
20103;BMP180;10210;52.284;9.892;2023-05-10T07:34:21;99824.00;;;17.80
20103;BMP180;10210;52.284;9.892;2023-05-10T07:36:47;99826.00;;;17.80
20103;BMP180;10210;52.284;9.892;2023-05-10T07:39:13;99828.00;;;17.90
20103;BMP180;10210;52.284;9.892;2023-05-10T07:41:39;99835.00;;;17.90
20103;BMP180;10210;52.284;9.892;2023-05-10T07:44:05;99843.00;;;18.00
20103;BMP180;10210;52.284;9.892;2023-05-10T07:46:31;99848.00;;;18.00
20103;BMP180;10210;52.284;9.892;2023-05-10T07:48:57;99845.00;;;18.10
20103;BMP180;10210;52.284;9.892;2023-05-10T07:51:22;99859.00;;;18.10
20103;BMP180;10210;52.284;9.892;2023-05-10T07:53:49;99851.00;;;18.10
20103;BMP180;10210;52.284;9.892;2023-05-10T07:56:27;99856.00;;;18.10
20103;BMP180;10210;52.284;9.892;2023-05-10T07:58:56;99852.00;;;18.10
20103;BMP180;10210;52.284;9.892;2023-05-10T08:01:23;99857.00;;;18.20
20103;BMP180;10210;52.284;9.892;2023-05-10T08:03:49;99859.00;;;18.20
20103;BMP180;10210;52.284;9.892;2023-05-10T08:06:18;99861.00;;;18.20
20103;BMP180;10210;52.284;9.892;2023-05-10T08:08:45;99857.00;;;18.20
20103;BMP180;10210;52.284;9.892;2023-05-10T08:11:17;99870.00;;;18.20
20103;BMP180;10210;52.284;9.892;2023-05-10T08:13:46;99865.00;;;18.30
20103;BMP180;10210;52.284;9.892;2023-05-10T08:16:12;99874.00;;;18.30
20103;BMP180;10210;52.284;9.892;2023-05-10T08:18:39;99888.00;;;18.30
20103;BMP180;10210;52.284;9.892;2023-05-10T08:21:05;99885.00;;;18.30
20103;BMP180;10210;52.284;9.892;2023-05-10T08:23:32;99888.00;;;18.30
20103;BMP180;10210;52.284;9.892;2023-05-10T08:25:58;99894.00;;;18.30
20103;BMP180;10210;52.284;9.892;2023-05-10T08:28:24;99893.00;;;18.30
20103;BMP180;10210;52.284;9.892;2023-05-10T08:30:50;99898.00;;;18.30
20103;BMP180;10210;52.284;9.892;2023-05-10T08:33:18;99899.00;;;18.30
20103;BMP180;10210;52.284;9.892;2023-05-10T08:35:44;99907.00;;;18.30
20103;BMP180;10210;52.284;9.892;2023-05-10T08:38:09;99900.00;;;18.30
20103;BMP180;10210;52.284;9.892;2023-05-10T08:40:37;99900.00;;;18.30
20103;BMP180;10210;52.284;9.892;2023-05-10T08:43:09;99914.00;;;18.30
20103;BMP180;10210;52.284;9.892;2023-05-10T08:45:43;99906.00;;;18.30
20103;BMP180;10210;52.284;9.892;2023-05-10T08:48:11;99896.00;;;18.30
20103;BMP180;10210;52.284;9.892;2023-05-10T08:50:41;99913.00;;;18.30
20103;BMP180;10210;52.284;9.892;2023-05-10T08:53:12;99918.00;;;18.40
20103;BMP180;10210;52.284;9.892;2023-05-10T08:55:40;99919.00;;;18.40
20103;BMP180;10210;52.284;9.892;2023-05-10T08:58:08;99924.00;;;18.40
20103;BMP180;10210;52.284;9.892;2023-05-10T09:00:35;99930.00;;;18.50
20103;BMP180;10210;52.284;9.892;2023-05-10T09:03:04;99934.00;;;18.50
20103;BMP180;10210;52.284;9.892;2023-05-10T09:05:31;99928.00;;;18.60
20103;BMP180;10210;52.284;9.892;2023-05-10T09:07:57;99933.00;;;18.60
20103;BMP180;10210;52.284;9.892;2023-05-10T09:10:26;99936.00;;;18.60
20103;BMP180;10210;52.284;9.892;2023-05-10T09:12:56;99945.00;;;18.60
20103;BMP180;10210;52.284;9.892;2023-05-10T09:15:22;99952.00;;;18.70
20103;BMP180;10210;52.284;9.892;2023-05-10T09:17:49;99946.00;;;18.70
20103;BMP180;10210;52.284;9.892;2023-05-10T09:20:15;99945.00;;;18.70
20103;BMP180;10210;52.284;9.892;2023-05-10T09:22:43;99953.00;;;18.70
20103;BMP180;10210;52.284;9.892;2023-05-10T09:25:11;99959.00;;;18.70
20103;BMP180;10210;52.284;9.892;2023-05-10T09:27:39;99968.00;;;18.70
20103;BMP180;10210;52.284;9.892;2023-05-10T09:30:07;99964.00;;;18.70
20103;BMP180;10210;52.284;9.892;2023-05-10T09:33:00;99963.00;;;18.60
20103;BMP180;10210;52.284;9.892;2023-05-10T09:35:29;99978.00;;;18.70
20103;BMP180;10210;52.284;9.892;2023-05-10T09:37:57;99977.00;;;18.70
20103;BMP180;10210;52.284;9.892;2023-05-10T09:40:25;99988.00;;;18.70
20103;BMP180;10210;52.284;9.892;2023-05-10T09:45:32;99994.00;;;18.70
20103;BMP180;10210;52.284;9.892;2023-05-10T09:47:59;99994.00;;;18.70
20103;BMP180;10210;52.284;9.892;2023-05-10T09:50:26;99992.00;;;18.70
20103;BMP180;10210;52.284;9.892;2023-05-10T09:53:00;99997.00;;;18.80
20103;BMP180;10210;52.284;9.892;2023-05-10T09:58:07;99999.00;;;18.80
20103;BMP180;10210;52.284;9.892;2023-05-10T10:00:44;100008.00;;;18.80
20103;BMP180;10210;52.284;9.892;2023-05-10T10:03:28;100007.00;;;18.80
20103;BMP180;10210;52.284;9.892;2023-05-10T10:05:55;99999.00;;;18.90
20103;BMP180;10210;52.284;9.892;2023-05-10T10:08:21;100002.00;;;18.90
20103;BMP180;10210;52.284;9.892;2023-05-10T10:10:48;100001.00;;;19.00
20103;BMP180;10210;52.284;9.892;2023-05-10T10:13:14;99998.00;;;19.00
20103;BMP180;10210;52.284;9.892;2023-05-10T10:15:42;100008.00;;;19.10
20103;BMP180;10210;52.284;9.892;2023-05-10T10:18:13;100010.00;;;19.10
20103;BMP180;10210;52.284;9.892;2023-05-10T10:20:41;100015.00;;;19.20
20103;BMP180;10210;52.284;9.892;2023-05-10T10:23:08;100014.00;;;19.20
20103;BMP180;10210;52.284;9.892;2023-05-10T10:25:34;100006.00;;;19.30
20103;BMP180;10210;52.284;9.892;2023-05-10T10:28:23;100021.00;;;19.20
20103;BMP180;10210;52.284;9.892;2023-05-10T10:30:52;100015.00;;;19.30
20103;BMP180;10210;52.284;9.892;2023-05-10T10:33:59;100022.00;;;19.30
20103;BMP180;10210;52.284;9.892;2023-05-10T10:36:26;100020.00;;;19.50
20103;BMP180;10210;52.284;9.892;2023-05-10T10:38:57;100015.00;;;19.60
20103;BMP180;10210;52.284;9.892;2023-05-10T10:41:37;100015.00;;;19.60
20103;BMP180;10210;52.284;9.892;2023-05-10T10:50:11;100017.00;;;19.90
20103;BMP180;10210;52.284;9.892;2023-05-10T10:52:42;100020.00;;;20.00
20103;BMP180;10210;52.284;9.892;2023-05-10T10:55:15;100018.00;;;20.10
20103;BMP180;10210;52.284;9.892;2023-05-10T11:00:19;100026.00;;;20.20
20103;BMP180;10210;52.284;9.892;2023-05-10T11:02:48;100024.00;;;20.20
20103;BMP180;10210;52.284;9.892;2023-05-10T11:07:56;100025.00;;;20.30
20103;BMP180;10210;52.284;9.892;2023-05-10T11:10:24;100023.00;;;20.40
20103;BMP180;10210;52.284;9.892;2023-05-10T11:13:07;100032.00;;;20.40
20103;BMP180;10210;52.284;9.892;2023-05-10T11:15:36;100024.00;;;20.50
20103;BMP180;10210;52.284;9.892;2023-05-10T11:18:20;100024.00;;;20.60
20103;BMP180;10210;52.284;9.892;2023-05-10T11:21:09;100029.00;;;20.60
20103;BMP180;10210;52.284;9.892;2023-05-10T11:23:51;100033.00;;;20.70
20103;BMP180;10210;52.284;9.892;2023-05-10T11:26:19;100033.00;;;20.80
20103;BMP180;10210;52.284;9.892;2023-05-10T11:28:49;100038.00;;;20.90
20103;BMP180;10210;52.284;9.892;2023-05-10T11:31:18;100039.00;;;20.90
20103;BMP180;10210;52.284;9.892;2023-05-10T11:33:51;100046.00;;;21.00
20103;BMP180;10210;52.284;9.892;2023-05-10T11:36:21;100042.00;;;21.00
20103;BMP180;10210;52.284;9.892;2023-05-10T11:38:48;100032.00;;;21.10
20103;BMP180;10210;52.284;9.892;2023-05-10T11:41:18;100022.00;;;21.20
20103;BMP180;10210;52.284;9.892;2023-05-10T11:43:52;100027.00;;;21.30
20103;BMP180;10210;52.284;9.892;2023-05-10T11:46:21;100035.00;;;21.40
20103;BMP180;10210;52.284;9.892;2023-05-10T11:48:53;100032.00;;;21.50
20103;BMP180;10210;52.284;9.892;2023-05-10T11:51:24;100037.00;;;21.50
20103;BMP180;10210;52.284;9.892;2023-05-10T11:53:53;100032.00;;;21.60
20103;BMP180;10210;52.284;9.892;2023-05-10T11:56:19;100036.00;;;21.70
20103;BMP180;10210;52.284;9.892;2023-05-10T11:58:56;100038.00;;;21.80
20103;BMP180;10210;52.284;9.892;2023-05-10T12:01:26;100046.00;;;21.90
20103;BMP180;10210;52.284;9.892;2023-05-10T12:03:55;100039.00;;;22.00
20103;BMP180;10210;52.284;9.892;2023-05-10T12:06:27;100033.00;;;22.10
20103;BMP180;10210;52.284;9.892;2023-05-10T12:08:54;100043.00;;;22.10
20103;BMP180;10210;52.284;9.892;2023-05-10T12:11:25;100046.00;;;22.20
20103;BMP180;10210;52.284;9.892;2023-05-10T12:13:51;100048.00;;;22.20
20103;BMP180;10210;52.284;9.892;2023-05-10T12:16:20;100044.00;;;22.30
20103;BMP180;10210;52.284;9.892;2023-05-10T12:18:55;100042.00;;;22.30
20103;BMP180;10210;52.284;9.892;2023-05-10T12:21:21;100050.00;;;22.40
20103;BMP180;10210;52.284;9.892;2023-05-10T12:23:51;100048.00;;;22.40
20103;BMP180;10210;52.284;9.892;2023-05-10T12:26:17;100054.00;;;22.40
20103;BMP180;10210;52.284;9.892;2023-05-10T12:28:43;100065.00;;;22.40
20103;BMP180;10210;52.284;9.892;2023-05-10T12:31:08;100063.00;;;22.30
20103;BMP180;10210;52.284;9.892;2023-05-10T12:33:43;100068.00;;;22.30
20103;BMP180;10210;52.284;9.892;2023-05-10T12:36:10;100076.00;;;22.20
20103;BMP180;10210;52.284;9.892;2023-05-10T12:38:42;100059.00;;;22.10
20103;BMP180;10210;52.284;9.892;2023-05-10T12:41:17;100066.00;;;21.90
20103;BMP180;10210;52.284;9.892;2023-05-10T12:43:44;100074.00;;;21.80
20103;BMP180;10210;52.284;9.892;2023-05-10T12:46:14;100074.00;;;21.70
20103;BMP180;10210;52.284;9.892;2023-05-10T12:48:41;100086.00;;;21.60
20103;BMP180;10210;52.284;9.892;2023-05-10T12:51:08;100081.00;;;21.60
20103;BMP180;10210;52.284;9.892;2023-05-10T12:53:35;100089.00;;;21.60
20103;BMP180;10210;52.284;9.892;2023-05-10T12:56:02;100089.00;;;21.50
20103;BMP180;10210;52.284;9.892;2023-05-10T12:58:28;100096.00;;;21.50
20103;BMP180;10210;52.284;9.892;2023-05-10T13:00:54;100100.00;;;21.60
20103;BMP180;10210;52.284;9.892;2023-05-10T13:03:22;100091.00;;;21.60
20103;BMP180;10210;52.284;9.892;2023-05-10T13:05:47;100098.00;;;21.60
20103;BMP180;10210;52.284;9.892;2023-05-10T13:08:13;100092.00;;;21.60
20103;BMP180;10210;52.284;9.892;2023-05-10T13:10:39;100100.00;;;21.70
20103;BMP180;10210;52.284;9.892;2023-05-10T13:13:05;100100.00;;;21.80
20103;BMP180;10210;52.284;9.892;2023-05-10T13:15:31;100098.00;;;21.80
20103;BMP180;10210;52.284;9.892;2023-05-10T13:17:57;100096.00;;;21.80
20103;BMP180;10210;52.284;9.892;2023-05-10T13:20:23;100090.00;;;21.90
20103;BMP180;10210;52.284;9.892;2023-05-10T13:22:49;100099.00;;;21.90
20103;BMP180;10210;52.284;9.892;2023-05-10T13:25:15;100088.00;;;21.90
20103;BMP180;10210;52.284;9.892;2023-05-10T13:27:41;100083.00;;;21.90
20103;BMP180;10210;52.284;9.892;2023-05-10T13:30:08;100078.00;;;22.00
20103;BMP180;10210;52.284;9.892;2023-05-10T13:32:35;100086.00;;;22.10
20103;BMP180;10210;52.284;9.892;2023-05-10T13:35:02;100089.00;;;22.10
20103;BMP180;10210;52.284;9.892;2023-05-10T13:37:29;100089.00;;;22.20
20103;BMP180;10210;52.284;9.892;2023-05-10T13:39:55;100088.00;;;22.30
20103;BMP180;10210;52.284;9.892;2023-05-10T13:42:22;100089.00;;;22.30
20103;BMP180;10210;52.284;9.892;2023-05-10T13:44:49;100095.00;;;22.30
20103;BMP180;10210;52.284;9.892;2023-05-10T13:47:15;100093.00;;;22.30
20103;BMP180;10210;52.284;9.892;2023-05-10T13:49:41;100089.00;;;22.30
20103;BMP180;10210;52.284;9.892;2023-05-10T13:52:07;100090.00;;;22.30
20103;BMP180;10210;52.284;9.892;2023-05-10T13:54:34;100087.00;;;22.30
20103;BMP180;10210;52.284;9.892;2023-05-10T13:57:00;100082.00;;;22.40
20103;BMP180;10210;52.284;9.892;2023-05-10T13:59:25;100083.00;;;22.40
20103;BMP180;10210;52.284;9.892;2023-05-10T14:01:52;100081.00;;;22.40
20103;BMP180;10210;52.284;9.892;2023-05-10T14:04:17;100082.00;;;22.40
20103;BMP180;10210;52.284;9.892;2023-05-10T14:06:43;100080.00;;;22.40
20103;BMP180;10210;52.284;9.892;2023-05-10T14:09:09;100080.00;;;22.40
20103;BMP180;10210;52.284;9.892;2023-05-10T14:11:35;100081.00;;;22.40
20103;BMP180;10210;52.284;9.892;2023-05-10T14:14:01;100077.00;;;22.40
20103;BMP180;10210;52.284;9.892;2023-05-10T14:16:26;100082.00;;;22.40
20103;BMP180;10210;52.284;9.892;2023-05-10T14:18:52;100089.00;;;22.40
20103;BMP180;10210;52.284;9.892;2023-05-10T14:21:18;100081.00;;;22.50
20103;BMP180;10210;52.284;9.892;2023-05-10T14:23:44;100088.00;;;22.50
20103;BMP180;10210;52.284;9.892;2023-05-10T14:26:09;100082.00;;;22.50
20103;BMP180;10210;52.284;9.892;2023-05-10T14:28:35;100077.00;;;22.50
20103;BMP180;10210;52.284;9.892;2023-05-10T14:31:01;100078.00;;;22.60
20103;BMP180;10210;52.284;9.892;2023-05-10T14:33:28;100075.00;;;22.70
20103;BMP180;10210;52.284;9.892;2023-05-10T14:35:54;100075.00;;;22.70
20103;BMP180;10210;52.284;9.892;2023-05-10T14:38:22;100079.00;;;22.80
20103;BMP180;10210;52.284;9.892;2023-05-10T14:40:48;100074.00;;;22.80
20103;BMP180;10210;52.284;9.892;2023-05-10T14:43:13;100076.00;;;22.80